Anshan, Liaoning

2:29 AM CST on July 29, 2016 (GMT +0800)
Taoxian | | Change Station

Elev 197 ft 41.64 °N, 123.48 °E | Updated 29 minutes ago

Light Rain Showers
Light Showers Rain
72 °F
Feels Like 72 °F
N
7
Wind Variable Wind from South

Today
High -- | Low -- °F
--% Chance of Precip.
Yesterday
High -- | Low -- °F
Precip. -- in
Pressure 29.65 in
Visibility 3.7 miles
Clouds Few 2600 ft
Mostly Cloudy 3300 ft
Dew Point 70 °F
Humidity 94%
Rainfall 0.00 in
Snow Depth Not available.
4:40 AM 7:07 PM
Waning Crescent, 30% visible
METAR ZYTX 281800Z 19003MPS 6000 -SHRA FEW026CB BKN033 22/21 Q1004 RETS NOSIG
Pressure 29.65 in
Visibility 3.7 miles
Clouds Few 2600 ft
Mostly Cloudy 3300 ft
Dew Point 70 °F
Humidity 94%
Rainfall 0.00 in
Snow Depth Not available.
4:40 AM 7:07 PM
Waning Crescent, 30% visible
METAR ZYTX 281800Z 19003MPS 6000 -SHRA FEW026CB BKN033 22/21 Q1004 RETS NOSIG

10-Day Weather Forecast

No radar image for this location.
×

Almanac

Astronomy

Jul. 29, 2016 Rise Set
Actual Time
Civil Twilight
Nautical Twilight
Astronomical Twilight
Moon
Length of Visible Light
Length of Day
Tomorrow will be .
, % of the Moon is Illuminated

Today's Extremes

Country Highs Country Lows

Community

WunderPhotos

Upload Photos

1,928,174 photos uploaded!

WunderBlog® & News

Nearby

Air Quality

  Air Quality AQ Index Pollutant
Not available.

Snow Depth

Station Depth Elevation

Earthquake Activity

City Distance Mag. Time & Date
Minimum magnitude displayed is 2.5.

Coastal Water Temperatures

Place Temperature

Stations

Nearby Weather Stations

Station Location Temp. Windchill Dew Point Humidity Wind Precip. Elev Updated Type